Terminal Aerodrome Forecast
Issued by NWS

Home | Current Version | Previous Version | Text Only | Print | Product List | Glossary On
Versions: 1 2 3 4 5 6 7 8 9 10 11 12 13 14 15
000
FTUS44 KLZK 210700 AAA
TAFADF
TAF AMD
KADF 210741Z 2108/2206 00000KT 5SM BR SKC
      TEMPO 2108/2110 2SM BR BKN002
     FM211000 00000KT 3SM BR SCT005
      TEMPO 2110/2113 1/2SM FG VV001
     FM211400 06004KT P6SM SKC=

USA.gov is the U.S. government's official web portal to all federal, state and local government web resources and services.